• Join FlightAware (Why Join?)
  • Login
  • US Flag 
04:09AM EDT


 

Airport Tracker/Info


-or-


 

Live Flight TrackerFlight Track Log ✈ JAI305 ✈ 09-Apr-2013 ✈ VIDP / DEL - VIAR / ATQ

Flight Track Log - Related Links

Times and Time Zones

All times are in EDT time to prevent confusion due to time zone crossing. See the JAI305 flight status page for this flight to view local times or setup timezone preferences in your user account.

Time Position Orientation Groundspeed Altitude Reporting Facility
EDT Latitude Longitude Course Direction KTS MPH feet Rate Location/Type
11:18PM 28.5480 77.0650 283° West 161 185 1,700  Level FlightAware
11:18PM 28.5530 77.0420 284° West 183 211 2,200 1,020 Climbing FlightAware
11:19PM 28.5550 77.0340 286° West 193 222 2,400 1,020 Climbing FlightAware
11:19PM 28.5490 76.9990 259° West 223 257 3,000 1,080 Climbing FlightAware
11:20PM 28.5410 76.9700 253° West 255 293 3,400 1,800 Climbing FlightAware
11:20PM 28.5300 76.9310 252° West 270 311 4,700 3,120 Climbing FlightAware
11:20PM 28.5170 76.8880 251° West 273 314 6,300 2,760 Climbing FlightAware
11:21PM 28.5140 76.8640 262° West 275 316 6,800 1,380 Climbing FlightAware
11:21PM 28.5290 76.7990 285° West 290 334 7,700 1,860 Climbing FlightAware
11:22PM 28.5370 76.7660 285° West 324 373 8,700 1,680 Climbing FlightAware
11:23PM 28.5670 76.6560 287° West 334 384 10,400 2,040 Climbing FlightAware
11:24PM 28.6200 76.5830 310° West 342 394 12,800 1,680 Climbing FlightAware
11:24PM 28.6490 76.5320 303° West 342 394 12,800 4,500 Level FlightAware
11:25PM 28.7260 76.4120 306° West 362 417 20,000 5,580 Climbing FlightAware
11:26PM 28.7690 76.3380 304° West 365 420 22,100 2,640 Climbing FlightAware
11:27PM 28.8080 76.2750 305° West 371 427 23,800 2,400 Climbing FlightAware
11:27PM 28.8470 76.2100 304° West 379 436 25,300 2,100 Climbing FlightAware
11:28PM 28.8920 76.1350 304° West 387 445 26,800 1,800 Climbing FlightAware
11:29PM 28.9340 76.0640 304° West 398 458 27,900 1,320 Climbing FlightAware
11:30PM 28.9770 75.9920 304° West 418 481 28,600 1,440 Climbing FlightAware
11:30PM 29.0340 75.9190 312° West 440 506 30,000 960 Climbing FlightAware
11:31PM 29.1120 75.8790 336° Northwest 461 531 30,000  Level FlightAware
11:32PM 29.2030 75.8410 340° North 459 528 30,000  Level FlightAware
11:32PM 29.2840 75.8070 340° North 458 527 30,000  Level FlightAware
11:33PM 29.3710 75.7710 340° North 457 526 30,000  Level FlightAware
11:34PM 29.4500 75.7370 339° North 457 526 30,000  Level FlightAware
11:34PM 29.5220 75.7060 339° North 457 526 30,000  Level FlightAware
11:35PM 29.5900 75.6760 339° North 457 526 30,000  Level FlightAware
11:36PM 29.6570 75.6470 339° North 457 526 30,000  Level FlightAware
11:37PM 29.7410 75.6090 339° North 457 526 30,000  Level FlightAware
11:37PM 29.8080 75.5800 339° North 457 526 30,000  Level FlightAware
11:38PM 29.9650 75.5190 341° North 468 539 30,000  Level FlightAware
11:39PM 30.0460 75.4850 340° North 469 540 30,000  Level FlightAware
11:39PM 30.1270 75.4500 340° North 468 539 30,000 -120 Level FlightAware
11:40PM 30.2190 75.4100 339° North 467 537 29,900 -1,500 Descending FlightAware
11:41PM 30.3020 75.3750 340° North 467 537 27,900 -2,880 Descending FlightAware
11:41PM 30.3810 75.3410 340° North 458 527 26,100 -2,640 Descending FlightAware
11:42PM 30.4680 75.3040 340° North 444 511 24,200 -2,580 Descending FlightAware
11:43PM 30.5440 75.2720 340° North 433 498 22,500 -2,520 Descending FlightAware
11:44PM 30.6290 75.2350 339° North 420 483 20,700 -2,400 Descending FlightAware
11:44PM 30.7010 75.2040 340° North 410 472 19,100 -2,340 Descending FlightAware
11:45PM 30.7710 75.1730 339° North 401 461 17,600 -2,340 Descending FlightAware
11:46PM 30.8490 75.1400 340° North 394 453 15,800 -2,400 Descending FlightAware
11:46PM 30.9170 75.1140 342° North 388 447 14,200 -2,340 Descending FlightAware
11:47PM 30.9840 75.0870 341° North 380 437 12,700 -2,340 Descending FlightAware
11:48PM 31.0600 75.0570 341° North 369 425 10,900 -2,280 Descending FlightAware
11:48PM 31.1230 75.0310 341° North 358 412 9,500 -2,160 Descending FlightAware
11:49PM 31.1670 75.0130 341° North 351 404 8,400 -1,560 Descending FlightAware
11:49PM 31.2060 74.9970 341° North 330 380 8,100 -480 Descending FlightAware
11:50PM 31.2470 74.9810 342° North 299 344 8,000 -120 Descending FlightAware
11:50PM 31.2840 74.9660 341° North 267 307 8,000  Level FlightAware
11:51PM 31.3060 74.9570 341° North 251 289 8,000 -600 Level FlightAware
11:51PM 31.3430 74.9420 341° North 243 280 7,500 -1,020 Descending FlightAware
11:52PM 31.3700 74.9310 341° North 236 272 7,000 -1,200 Descending FlightAware
11:52PM 31.3990 74.9200 342° North 216 249 6,400 -1,620 Descending FlightAware
11:53PM 31.4280 74.9100 344° North 216 249 5,400 -1,680 Descending FlightAware
11:53PM 31.4520 74.9040 348° North 204 235 4,900 -600 Descending FlightAware
11:54PM 31.4800 74.8970 348° North 200 230 4,800 -180 Descending FlightAware
11:56PM 31.5837 74.8525 340° North  Level Estimated
11:57PM 31.6613 74.8192 340° North  Level Estimated
11:58PM 31.7078 74.7992 340° North  Level Estimated
11:59PM 31.7078 74.7992 320° Northwest  Level Estimated
12:00AM 31.7078 74.7992 320° Northwest  Level Estimated
12:01AM 31.7078 74.7992 320° Northwest  Level Estimated
12:02AM 31.7078 74.7992 320° Northwest  Level Estimated
12:03AM 31.7078 74.7992 320° Northwest  Level Estimated
12:04AM 31.7078 74.7992 320° Northwest  Level Estimated